Rudnaja Pristan, Russia
Current Conditions -  °F | °C
As of 3:00 PM on Thursday 23 Oct 2014 (Local Time) from UHWW Reporting Station
Broken Clouds Broken Clouds  
Wind Chill: 57°   Ceiling: 4000
Heat Index: 57°   Visibility: 6mi
Dew Point: 43°   Wind: 13mph
Humidity: 59%   Direction: 180°S
Pressure: 30.03"   Gusts: NA
Location:  44.36°N, 135.82°E
Report Text: UHWW 230500Z 18006MPS 9999 BKN040 14/06 Q1017 NOSIG RMKQFE761/1015 25CLRD70
Loading
Personal Weather Stations






























Interactive Weather Map
Tropical Storm Tracking
New forecast layout! Learn more

10-Day Weather Forecast

Advertisements
Track Severe Weather on mobile